»·PEaware :: FDX4214 KOAK-KPHX

FDX4214 :: KOAK-KPHX

FLIGHT INFORMATION

Flight Status: Arrived
Operator:
Federal Express
More flights by this operator :: More flights under this callsign
Pilot: Anonymous 12254 (12254)
Aircraft: BOEING 727-200
(B722)
More flights by this aircraft type
Origin: KOAK Metro Oakland Intl
United States
Destination: KPHX Phoenix Sky Harbor Intl
United States
More flights between these airports :: More routes between these airports
Route: +CNDEL4 LOSHN BOILE BLH HYDRR1
File this flight plan on PilotEdge
Remarks:
Altitude:
(Current/Filed)
31,000ft
Speed:
(Current/Filed)
400kts
Departed: 21-Oct-20 10:51 AM
Arrived: 21-Oct-20 12:28 PM
Distance/Time
Traveled:
561nm/1:37
Distance/Time
To Go:
Arrived

Flight Plot

Page will automatically refresh every two minutes.

Flight plan parsing failed; only flown route is shown


Map Options




Map Legend


Flown Route
Filed Route
Departure Airport
Arrival Airport
Navaid (VOR, NDB)
Fix

Horizontal Profiles

Position Reports

Time Latitude Longitude Heading Altitude Ground
Speed
21-Oct-20 10:05 37.717218 -122.220270 310 16ft 0kts
21-Oct-20 10:06 37.717218 -122.220270 310 16ft 0kts
21-Oct-20 10:07 37.717218 -122.220270 310 16ft 0kts
21-Oct-20 10:08 37.717218 -122.220270 310 16ft 0kts
21-Oct-20 10:09 37.717218 -122.220270 310 16ft 0kts
21-Oct-20 10:10 37.717218 -122.220270 310 16ft 0kts
21-Oct-20 10:11 37.717218 -122.220270 310 16ft 0kts
21-Oct-20 10:12 37.717218 -122.220270 310 16ft 0kts
21-Oct-20 10:13 37.717218 -122.220270 310 16ft 0kts
21-Oct-20 10:14 37.717218 -122.220270 310 16ft 0kts
21-Oct-20 10:15 37.717218 -122.220270 310 16ft 0kts
21-Oct-20 10:16 37.717218 -122.220270 310 16ft 0kts
21-Oct-20 10:17 37.717218 -122.220270 310 16ft 0kts
21-Oct-20 10:18 37.717218 -122.220270 310 16ft 0kts
21-Oct-20 10:19 37.717218 -122.220270 310 16ft 0kts
21-Oct-20 10:20 37.717218 -122.220270 310 16ft 0kts
21-Oct-20 10:20 37.717218 -122.220270 310 16ft 0kts
21-Oct-20 10:22 37.717218 -122.220270 310 16ft 0kts
21-Oct-20 10:22 37.717218 -122.220270 310 16ft 0kts
21-Oct-20 10:23 37.717218 -122.220270 310 16ft 0kts
21-Oct-20 10:24 37.717218 -122.220270 310 16ft 0kts
21-Oct-20 10:25 37.717218 -122.220270 310 16ft 0kts
21-Oct-20 10:27 37.717218 -122.220270 310 16ft 0kts
21-Oct-20 10:27 37.717218 -122.220270 310 16ft 0kts
21-Oct-20 10:28 37.717218 -122.220270 310 16ft 0kts
21-Oct-20 10:29 37.717218 -122.220270 310 16ft 0kts
21-Oct-20 10:30 37.717218 -122.220270 310 16ft 0kts
21-Oct-20 10:31 37.717218 -122.220270 310 16ft 0kts
21-Oct-20 10:32 37.717218 -122.220270 310 16ft 0kts
21-Oct-20 10:33 37.717218 -122.220270 310 16ft 0kts
21-Oct-20 10:34 37.717218 -122.220270 310 16ft 0kts
21-Oct-20 10:35 37.717218 -122.220270 310 16ft 0kts
21-Oct-20 10:36 37.717218 -122.220270 310 16ft 0kts
21-Oct-20 10:37 37.717218 -122.220270 310 16ft 0kts
21-Oct-20 10:38 37.717218 -122.220270 310 16ft 0kts
21-Oct-20 10:39 37.717218 -122.220270 310 16ft 0kts
21-Oct-20 10:40 37.716868 -122.219601 230 16ft 3kts
21-Oct-20 10:41 37.715641 -122.220317 139 16ft 0kts
21-Oct-20 10:42 37.715641 -122.220317 139 16ft 0kts
21-Oct-20 10:43 37.715641 -122.220317 139 16ft 0kts
21-Oct-20 10:44 37.715633 -122.220308 139 16ft 0kts
21-Oct-20 10:45 37.713936 -122.220983 228 16ft 12kts
21-Oct-20 10:46 37.711101 -122.224267 199 16ft 15kts
21-Oct-20 10:47 37.708019 -122.220297 130 16ft 17kts
21-Oct-20 10:48 37.704556 -122.215091 130 16ft 20kts
21-Oct-20 10:49 37.702709 -122.213593 173 16ft 11kts
21-Oct-20 10:50 37.710602 -122.227984 310 17ft 154kts
21-Oct-20 10:51 37.748223 -122.284955 310 1212ft 249kts
21-Oct-20 10:52 37.788873 -122.350648 294 2624ft 224kts
21-Oct-20 10:53 37.783409 -122.416896 204 4106ft 191kts
21-Oct-20 10:54 37.730799 -122.410237 187 5735ft 206kts
21-Oct-20 10:55 37.669037 -122.424362 194 7411ft 248kts
21-Oct-20 10:56 37.596345 -122.445594 193 9066ft 289kts
21-Oct-20 10:57 37.513121 -122.464985 173 10692ft 315kts
21-Oct-20 10:58 37.443315 -122.403290 127 12297ft 328kts
21-Oct-20 10:59 37.385154 -122.311475 129 13912ft 341kts
21-Oct-20 11:00 37.324881 -122.218480 128 15514ft 346kts
21-Oct-20 11:01 37.264067 -122.124571 128 17114ft 345kts
21-Oct-20 11:02 37.203874 -122.031868 128 18707ft 339kts
21-Oct-20 11:03 37.145563 -121.942307 128 20287ft 327kts
21-Oct-20 11:04 37.089122 -121.855856 128 21865ft 314kts
21-Oct-20 11:05 37.035666 -121.774151 128 23424ft 290kts
21-Oct-20 11:06 36.986880 -121.699625 129 24951ft 262kts
21-Oct-20 11:07 36.942272 -121.631684 129 26335ft 251kts
21-Oct-20 11:08 36.896273 -121.562037 129 27017ft 275kts
21-Oct-20 11:09 36.844114 -121.483256 129 27558ft 314kts
21-Oct-20 11:10 36.785408 -121.394514 129 28326ft 349kts
21-Oct-20 11:11 36.720831 -121.297108 130 29165ft 380kts
21-Oct-20 11:12 36.653653 -121.196188 130 29963ft 404kts
21-Oct-20 11:13 36.580421 -121.086462 130 30721ft 423kts
21-Oct-20 11:14 36.503561 -120.971781 130 31007ft 442kts
21-Oct-20 11:15 36.432309 -120.865282 130 31028ft 451kts
21-Oct-20 11:16 36.351532 -120.744398 130 31060ft 459kts
21-Oct-20 11:17 36.269022 -120.621434 130 31016ft 468kts
21-Oct-20 11:18 36.185417 -120.497336 130 31011ft 472kts
21-Oct-20 11:19 36.101060 -120.372572 130 31005ft 474kts
21-Oct-20 11:20 36.017162 -120.248938 130 30993ft 476kts
21-Oct-20 11:21 35.932322 -120.124392 130 30994ft 475kts
21-Oct-20 11:22 35.847143 -119.999889 130 30990ft 474kts
21-Oct-20 11:23 35.761422 -119.877621 131 30996ft 473kts
21-Oct-20 11:24 35.675068 -119.755352 131 30981ft 473kts
21-Oct-20 11:25 35.588906 -119.633523 131 30981ft 472kts
21-Oct-20 11:26 35.502909 -119.512363 131 30981ft 472kts
21-Oct-20 11:27 35.416424 -119.390978 131 30981ft 472kts
21-Oct-20 11:28 35.329714 -119.269694 131 30981ft 472kts
21-Oct-20 11:29 35.243319 -119.149306 131 30981ft 472kts
21-Oct-20 11:30 35.156462 -119.028694 131 30982ft 472kts
21-Oct-20 11:31 35.070107 -118.909216 131 31040ft 470kts
21-Oct-20 11:32 34.983428 -118.789662 131 31132ft 468kts
21-Oct-20 11:33 34.910314 -118.661801 99 31081ft 466kts
21-Oct-20 11:34 34.928491 -118.507952 76 31132ft 462kts
21-Oct-20 11:35 34.949972 -118.354136 99 31040ft 464kts
21-Oct-20 11:36 34.892040 -118.215474 117 31057ft 460kts
21-Oct-20 11:37 34.839751 -118.072822 113 31035ft 462kts
21-Oct-20 11:38 34.789031 -117.929197 113 31036ft 463kts
21-Oct-20 11:39 34.737199 -117.785587 113 31036ft 465kts
21-Oct-20 11:40 34.685248 -117.641838 113 31063ft 466kts
21-Oct-20 11:41 34.633107 -117.497934 113 31067ft 468kts
21-Oct-20 11:42 34.580344 -117.353027 113 31067ft 469kts
21-Oct-20 11:43 34.527496 -117.208532 114 31061ft 471kts
21-Oct-20 11:44 34.474175 -117.063510 114 31030ft 473kts
21-Oct-20 11:45 34.420117 -116.917875 113 31011ft 474kts
21-Oct-20 11:46 34.366264 -116.772335 112 31015ft 476kts
21-Oct-20 11:47 34.312195 -116.625920 113 30976ft 478kts
21-Oct-20 11:48 34.257357 -116.479461 113 31023ft 478kts
21-Oct-20 11:49 34.202347 -116.333345 113 31048ft 479kts
21-Oct-20 11:50 34.147048 -116.186800 113 31053ft 479kts
21-Oct-20 11:51 34.091741 -116.040920 113 31065ft 480kts
21-Oct-20 11:52 34.035968 -115.894506 113 31026ft 482kts
21-Oct-20 11:53 33.979649 -115.747243 113 30969ft 484kts
21-Oct-20 11:54 33.923144 -115.600222 113 30935ft 486kts
21-Oct-20 11:55 33.866081 -115.452304 113 30927ft 486kts
21-Oct-20 11:56 33.808943 -115.304896 114 30940ft 486kts
21-Oct-20 11:57 33.751711 -115.157810 114 30939ft 486kts
21-Oct-20 11:59 33.694557 -115.010841 115 30950ft 486kts
21-Oct-20 12:00 33.637544 -114.866206 115 30926ft 475kts
21-Oct-20 12:01 33.586633 -114.723830 106 30585ft 453kts
21-Oct-20 12:02 33.559465 -114.579863 100 29984ft 436kts
21-Oct-20 12:03 33.534603 -114.440434 102 29343ft 422kts
21-Oct-20 12:04 33.510427 -114.319107 103 28685ft 414kts
21-Oct-20 12:05 33.483677 -114.186362 103 27759ft 404kts
21-Oct-20 12:06 33.458013 -114.057608 103 26391ft 393kts
21-Oct-20 12:07 33.432605 -113.930858 104 24795ft 391kts
21-Oct-20 12:08 33.407152 -113.804438 104 23003ft 391kts
21-Oct-20 12:09 33.381652 -113.678541 104 21222ft 390kts
21-Oct-20 12:10 33.355969 -113.552403 104 19571ft 386kts
21-Oct-20 12:11 33.331647 -113.429406 102 18176ft 376kts
21-Oct-20 12:12 33.310842 -113.308980 102 17073ft 362kts
21-Oct-20 12:13 33.292272 -113.195111 101 17020ft 338kts
21-Oct-20 12:13 33.279259 -113.104735 101 16981ft 325kts
21-Oct-20 12:15 33.274913 -112.979098 89 16157ft 330kts
21-Oct-20 12:15 33.278505 -112.886262 88 15333ft 339kts
21-Oct-20 12:17 33.300424 -112.757185 68 14174ft 347kts
21-Oct-20 12:17 33.334763 -112.670914 63 13171ft 341kts
21-Oct-20 12:18 33.376572 -112.571278 65 11303ft 332kts
21-Oct-20 12:20 33.418287 -112.456434 68 8963ft 312kts
21-Oct-20 12:20 33.431092 -112.381956 91 7372ft 251kts
21-Oct-20 12:21 33.428060 -112.303783 90 5344ft 225kts
21-Oct-20 12:22 33.428649 -112.233777 90 3980ft 195kts
21-Oct-20 12:23 33.429824 -112.173927 89 3396ft 168kts
21-Oct-20 12:24 33.430382 -112.114901 95 2930ft 181kts
21-Oct-20 12:25 33.429049 -112.056433 91 1851ft 171kts
21-Oct-20 12:26 33.428838 -112.009594 89 1137ft 63kts
21-Oct-20 12:27 33.428882 -112.005152 86 1137ft 11kts

Navigation Log

Ident Type
Flight plan parsing failed, navigation log unavailable